Time;durP1;ratioP1;P1;durP2;ratioP2;P2;SDS_P1;SDS_P2;PMS_P1;PMS_P2;Temp;Humidity;BMP_temperature;BMP_pressure;BME280_temperature;BME280_humidity;BME280_pressure;Samples;Min_cycle;Max_cycle;Signal;HPM_P1;HPM_P2
2022/09/27 00:01:28;;;;;;;4.97;2.40;;;8.70;99.90;;;;;;5026447;28;20926;-83
2022/09/27 00:03:57;;;;;;;5.90;2.40;;;8.50;99.90;;;;;;5026842;28;20937;-83
2022/09/27 00:06:30;;;;;;;3.70;2.22;;;8.60;99.90;;;;;;5026861;28;20412;-85
2022/09/27 00:08:58;;;;;;;5.47;2.20;;;8.50;99.90;;;;;;5026921;28;20571;-84
2022/09/27 00:11:29;;;;;;;3.90;2.22;;;8.50;99.90;;;;;;5018158;28;20953;-85
2022/09/27 00:13:58;;;;;;;3.55;2.20;;;8.50;99.90;;;;;;5026565;28;20926;-84
2022/09/27 00:16:31;;;;;;;3.42;2.13;;;8.50;99.90;;;;;;5026633;28;20891;-85
2022/09/27 00:19:05;;;;;;;5.05;2.33;;;8.40;99.90;;;;;;5026183;28;20477;-86
2022/09/27 00:21:33;;;;;;;6.80;2.50;;;8.40;99.90;;;;;;5026567;28;20504;-85
2022/09/27 00:24:01;;;;;;;4.87;2.30;;;8.40;99.90;;;;;;5027138;28;20479;-85
2022/09/27 00:26:29;;;;;;;3.88;2.38;;;8.40;99.90;;;;;;5026743;28;20812;-84
2022/09/27 00:28:57;;;;;;;5.20;2.22;;;8.30;99.90;;;;;;5026469;28;20409;-85
2022/09/27 00:31:30;;;;;;;4.38;2.47;;;8.30;99.90;;;;;;5025231;28;20508;-84
2022/09/27 00:34:00;;;;;;;4.05;2.78;;;8.20;99.90;;;;;;5026640;28;20898;-85
2022/09/27 00:36:28;;;;;;;4.93;2.53;;;8.20;99.90;;;;;;5025149;28;20406;-84
2022/09/27 00:39:00;;;;;;;4.13;2.50;;;8.30;99.90;;;;;;5025530;28;20433;-84
2022/09/27 00:41:32;;;;;;;5.53;2.15;;;8.20;99.90;;;;;;5018028;28;20405;-83
2022/09/27 00:44:27;;;;;;;6.00;2.38;;;8.10;99.90;;;;;;5025555;28;20461;-84
2022/09/27 00:47:20;;;;;;;6.70;2.13;;;8.20;99.90;;;;;;5024983;28;20464;-84
2022/09/27 00:49:54;;;;;;;3.45;2.10;;;8.20;99.90;;;;;;5026290;28;20401;-85
2022/09/27 00:52:33;;;;;;;4.00;2.30;;;8.10;99.90;;;;;;5025177;28;20416;-84
2022/09/27 00:55:07;;;;;;;4.78;2.40;;;8.20;99.90;;;;;;5016845;28;20407;-84
2022/09/27 00:57:36;;;;;;;3.35;2.30;;;8.10;99.90;;;;;;5026670;28;20655;-83
2022/09/27 01:00:10;;;;;;;2.90;2.10;;;8.10;99.90;;;;;;5026155;28;20488;-85
2022/09/27 01:02:42;;;;;;;6.40;2.38;;;8.00;99.90;;;;;;5026753;28;20409;-83
2022/09/27 01:05:12;;;;;;;7.32;2.80;;;8.10;99.90;;;;;;5026916;28;20386;-85
2022/09/27 01:07:40;;;;;;;4.65;2.30;;;8.10;99.90;;;;;;5026523;28;20393;-84
2022/09/27 01:10:09;;;;;;;4.55;2.50;;;8.00;99.90;;;;;;5024792;28;20920;-83
2022/09/27 01:13:13;;;;;;;7.77;2.40;;;8.00;99.90;;;;;;5026254;28;20413;-82
2022/09/27 01:16:00;;;;;;;5.47;3.03;;;8.00;99.90;;;;;;5014288;28;21008;-84
2022/09/27 01:18:44;;;;;;;4.13;2.80;;;7.80;99.90;;;;;;5018515;28;20409;-85
2022/09/27 01:21:53;;;;;;;4.70;2.80;;;7.90;99.90;;;;;;5026486;28;20871;-85
2022/09/27 01:24:42;;;;;;;4.82;2.20;;;7.90;99.90;;;;;;4989335;28;20404;-84
2022/09/27 01:27:10;;;;;;;4.88;2.60;;;7.90;99.90;;;;;;5027096;28;20416;-84
2022/09/27 01:30:15;;;;;;;5.75;2.65;;;7.70;99.90;;;;;;5028086;28;20405;-83
2022/09/27 01:32:59;;;;;;;4.90;2.50;;;7.70;99.90;;;;;;4999416;28;20504;-83
2022/09/27 01:35:45;;;;;;;4.40;2.08;;;7.80;99.90;;;;;;5027932;28;20409;-85
2022/09/27 01:38:29;;;;;;;3.72;2.50;;;7.80;99.90;;;;;;5028340;28;20420;-85
2022/09/27 01:41:16;;;;;;;3.17;2.30;;;7.80;99.90;;;;;;5018024;28;20987;-83
2022/09/27 01:44:06;;;;;;;6.28;3.00;;;7.80;99.90;;;;;;5028580;28;20503;-84
2022/09/27 01:46:46;;;;;;;3.85;2.58;;;7.80;99.90;;;;;;5027651;28;20425;-84
2022/09/27 01:49:59;;;;;;;3.50;2.50;;;7.80;99.90;;;;;;5027914;28;20414;-84
2022/09/27 01:52:40;;;;;;;7.43;2.90;;;7.90;99.90;;;;;;5027790;28;20443;-84
2022/09/27 01:55:13;;;;;;;5.70;2.45;;;7.90;99.90;;;;;;5028111;28;20492;-82
2022/09/27 01:58:20;;;;;;;4.10;2.35;;;7.80;99.90;;;;;;5029302;28;20879;-83
2022/09/27 02:00:53;;;;;;;4.50;2.50;;;7.80;99.90;;;;;;4997617;28;20448;-84
2022/09/27 02:03:43;;;;;;;5.25;2.17;;;7.70;99.90;;;;;;5029079;28;20895;-84
2022/09/27 02:06:36;;;;;;;4.88;2.70;;;7.70;99.90;;;;;;5028959;28;20382;-85
2022/09/27 02:09:33;;;;;;;3.88;2.67;;;7.70;99.90;;;;;;5028044;28;20484;-82
2022/09/27 02:12:32;;;;;;;4.15;2.92;;;7.60;99.90;;;;;;5023689;28;20402;-84
2022/09/27 02:15:12;;;;;;;4.47;2.40;;;7.60;99.90;;;;;;5018255;28;20518;-84
2022/09/27 02:17:57;;;;;;;4.65;2.90;;;7.60;99.90;;;;;;5039178;28;20415;-84
2022/09/27 02:20:48;;;;;;;5.57;2.83;;;7.60;99.90;;;;;;5018026;28;20442;-84
2022/09/27 02:23:36;;;;;;;4.80;3.15;;;7.60;99.90;;;;;;5040825;28;20409;-85
2022/09/27 02:26:19;;;;;;;4.97;3.72;;;7.50;99.90;;;;;;5019297;28;20409;-83
2022/09/27 02:29:04;;;;;;;6.70;3.90;;;7.50;99.90;;;;;;5023533;28;20436;-82
